sensor_id;sensor_type;location;lat;lon;timestamp;P1;durP1;ratioP1;P2;durP2;ratioP2
6378;SDS011;3222;48.858;10.128;2024-02-21T00:02:05;7.67;;;3.20;;
6378;SDS011;3222;48.858;10.128;2024-02-21T00:04:31;8.30;;;3.53;;
6378;SDS011;3222;48.858;10.128;2024-02-21T00:06:56;9.00;;;3.70;;
6378;SDS011;3222;48.858;10.128;2024-02-21T00:09:22;7.67;;;4.00;;
6378;SDS011;3222;48.858;10.128;2024-02-21T00:11:48;8.23;;;3.97;;
6378;SDS011;3222;48.858;10.128;2024-02-21T00:14:13;10.17;;;3.83;;
6378;SDS011;3222;48.858;10.128;2024-02-21T00:16:39;11.50;;;4.57;;
6378;SDS011;3222;48.858;10.128;2024-02-21T00:19:04;12.77;;;5.00;;
6378;SDS011;3222;48.858;10.128;2024-02-21T00:21:30;13.17;;;4.77;;
6378;SDS011;3222;48.858;10.128;2024-02-21T00:23:56;7.67;;;4.30;;
6378;SDS011;3222;48.858;10.128;2024-02-21T00:26:21;10.77;;;4.40;;
6378;SDS011;3222;48.858;10.128;2024-02-21T00:28:47;10.53;;;4.13;;
6378;SDS011;3222;48.858;10.128;2024-02-21T00:31:13;8.97;;;3.90;;
6378;SDS011;3222;48.858;10.128;2024-02-21T00:33:39;10.53;;;3.90;;
6378;SDS011;3222;48.858;10.128;2024-02-21T00:36:04;7.27;;;4.17;;
6378;SDS011;3222;48.858;10.128;2024-02-21T00:38:30;7.83;;;4.30;;
6378;SDS011;3222;48.858;10.128;2024-02-21T00:40:56;7.23;;;3.70;;
6378;SDS011;3222;48.858;10.128;2024-02-21T00:43:21;12.23;;;4.60;;
6378;SDS011;3222;48.858;10.128;2024-02-21T00:45:49;6.53;;;3.93;;
6378;SDS011;3222;48.858;10.128;2024-02-21T00:48:15;9.93;;;4.53;;
6378;SDS011;3222;48.858;10.128;2024-02-21T00:50:40;10.87;;;4.53;;
6378;SDS011;3222;48.858;10.128;2024-02-21T00:53:06;9.20;;;4.33;;
6378;SDS011;3222;48.858;10.128;2024-02-21T00:55:32;9.30;;;4.60;;
6378;SDS011;3222;48.858;10.128;2024-02-21T00:57:57;10.90;;;4.90;;
6378;SDS011;3222;48.858;10.128;2024-02-21T01:00:23;10.03;;;4.83;;
6378;SDS011;3222;48.858;10.128;2024-02-21T01:02:49;9.63;;;4.37;;
6378;SDS011;3222;48.858;10.128;2024-02-21T01:05:14;9.33;;;4.30;;
6378;SDS011;3222;48.858;10.128;2024-02-21T01:07:40;7.77;;;3.67;;
6378;SDS011;3222;48.858;10.128;2024-02-21T01:10:06;9.80;;;3.87;;
6378;SDS011;3222;48.858;10.128;2024-02-21T01:12:32;9.90;;;4.00;;
6378;SDS011;3222;48.858;10.128;2024-02-21T01:14:57;8.67;;;4.50;;
6378;SDS011;3222;48.858;10.128;2024-02-21T01:17:23;8.97;;;4.47;;
6378;SDS011;3222;48.858;10.128;2024-02-21T01:19:49;8.87;;;4.77;;
6378;SDS011;3222;48.858;10.128;2024-02-21T01:22:14;9.70;;;4.03;;
6378;SDS011;3222;48.858;10.128;2024-02-21T01:24:41;17.10;;;4.93;;
6378;SDS011;3222;48.858;10.128;2024-02-21T01:27:07;10.80;;;4.50;;
6378;SDS011;3222;48.858;10.128;2024-02-21T01:29:32;12.73;;;4.63;;
6378;SDS011;3222;48.858;10.128;2024-02-21T01:31:58;11.53;;;4.60;;
6378;SDS011;3222;48.858;10.128;2024-02-21T01:34:24;7.60;;;3.93;;
6378;SDS011;3222;48.858;10.128;2024-02-21T01:36:50;7.60;;;3.77;;
6378;SDS011;3222;48.858;10.128;2024-02-21T01:39:15;6.43;;;3.30;;
6378;SDS011;3222;48.858;10.128;2024-02-21T01:41:41;6.63;;;4.10;;
6378;SDS011;3222;48.858;10.128;2024-02-21T01:44:07;9.80;;;3.50;;
6378;SDS011;3222;48.858;10.128;2024-02-21T01:46:32;6.47;;;3.40;;
6378;SDS011;3222;48.858;10.128;2024-02-21T01:48:59;7.63;;;3.30;;
6378;SDS011;3222;48.858;10.128;2024-02-21T01:51:26;6.90;;;3.53;;
6378;SDS011;3222;48.858;10.128;2024-02-21T01:53:52;6.30;;;3.20;;
6378;SDS011;3222;48.858;10.128;2024-02-21T01:56:20;8.13;;;3.33;;
6378;SDS011;3222;48.858;10.128;2024-02-21T01:58:46;7.17;;;3.20;;
6378;SDS011;3222;48.858;10.128;2024-02-21T02:01:13;7.63;;;3.30;;
6378;SDS011;3222;48.858;10.128;2024-02-21T02:03:39;7.60;;;3.20;;
6378;SDS011;3222;48.858;10.128;2024-02-21T02:06:05;6.20;;;3.00;;
6378;SDS011;3222;48.858;10.128;2024-02-21T02:08:34;6.30;;;3.00;;
6378;SDS011;3222;48.858;10.128;2024-02-21T02:11:00;9.77;;;3.70;;
6378;SDS011;3222;48.858;10.128;2024-02-21T02:13:26;7.13;;;3.00;;
6378;SDS011;3222;48.858;10.128;2024-02-21T02:15:52;8.10;;;2.90;;
6378;SDS011;3222;48.858;10.128;2024-02-21T02:18:19;8.83;;;3.90;;
6378;SDS011;3222;48.858;10.128;2024-02-21T02:20:45;6.57;;;3.13;;
6378;SDS011;3222;48.858;10.128;2024-02-21T02:23:12;6.37;;;3.13;;
6378;SDS011;3222;48.858;10.128;2024-02-21T02:26:11;6.77;;;3.20;;
6378;SDS011;3222;48.858;10.128;2024-02-21T02:28:36;9.13;;;3.30;;
6378;SDS011;3222;48.858;10.128;2024-02-21T02:31:02;8.90;;;3.20;;
6378;SDS011;3222;48.858;10.128;2024-02-21T02:33:28;9.13;;;3.43;;
6378;SDS011;3222;48.858;10.128;2024-02-21T02:35:53;8.17;;;3.20;;
6378;SDS011;3222;48.858;10.128;2024-02-21T02:38:19;7.33;;;3.27;;
6378;SDS011;3222;48.858;10.128;2024-02-21T02:40:45;5.63;;;3.50;;
6378;SDS011;3222;48.858;10.128;2024-02-21T02:43:10;7.03;;;3.27;;
6378;SDS011;3222;48.858;10.128;2024-02-21T02:45:36;8.50;;;3.67;;
6378;SDS011;3222;48.858;10.128;2024-02-21T02:48:02;5.80;;;3.23;;
6378;SDS011;3222;48.858;10.128;2024-02-21T02:50:28;6.43;;;3.27;;
6378;SDS011;3222;48.858;10.128;2024-02-21T02:52:54;7.40;;;3.37;;
6378;SDS011;3222;48.858;10.128;2024-02-21T02:55:20;9.03;;;2.90;;
6378;SDS011;3222;48.858;10.128;2024-02-21T02:57:45;9.97;;;3.30;;
6378;SDS011;3222;48.858;10.128;2024-02-21T03:00:12;5.77;;;3.03;;
6378;SDS011;3222;48.858;10.128;2024-02-21T03:02:39;8.47;;;3.47;;
6378;SDS011;3222;48.858;10.128;2024-02-21T03:05:14;6.00;;;2.80;;
6378;SDS011;3222;48.858;10.128;2024-02-21T03:07:40;6.43;;;2.90;;
6378;SDS011;3222;48.858;10.128;2024-02-21T03:10:06;8.20;;;3.20;;
6378;SDS011;3222;48.858;10.128;2024-02-21T03:12:32;8.63;;;2.90;;
6378;SDS011;3222;48.858;10.128;2024-02-21T03:14:58;6.17;;;3.00;;
6378;SDS011;3222;48.858;10.128;2024-02-21T03:17:24;8.13;;;3.10;;
6378;SDS011;3222;48.858;10.128;2024-02-21T03:19:52;5.93;;;2.73;;
6378;SDS011;3222;48.858;10.128;2024-02-21T03:22:17;11.57;;;3.70;;
6378;SDS011;3222;48.858;10.128;2024-02-21T03:24:44;5.73;;;2.90;;
6378;SDS011;3222;48.858;10.128;2024-02-21T03:27:09;7.03;;;2.80;;
6378;SDS011;3222;48.858;10.128;2024-02-21T03:29:35;6.73;;;2.70;;
6378;SDS011;3222;48.858;10.128;2024-02-21T03:32:01;7.90;;;3.27;;
6378;SDS011;3222;48.858;10.128;2024-02-21T03:34:26;5.30;;;2.37;;
6378;SDS011;3222;48.858;10.128;2024-02-21T03:36:52;4.07;;;2.97;;
6378;SDS011;3222;48.858;10.128;2024-02-21T03:39:18;6.17;;;2.87;;
6378;SDS011;3222;48.858;10.128;2024-02-21T03:41:44;6.07;;;2.83;;
6378;SDS011;3222;48.858;10.128;2024-02-21T03:44:09;5.70;;;2.70;;
6378;SDS011;3222;48.858;10.128;2024-02-21T03:46:35;3.87;;;2.40;;
6378;SDS011;3222;48.858;10.128;2024-02-21T03:49:00;8.07;;;2.93;;
6378;SDS011;3222;48.858;10.128;2024-02-21T03:51:26;7.17;;;3.03;;
6378;SDS011;3222;48.858;10.128;2024-02-21T03:53:52;5.33;;;2.63;;
6378;SDS011;3222;48.858;10.128;2024-02-21T03:56:17;7.00;;;2.87;;
6378;SDS011;3222;48.858;10.128;2024-02-21T03:58:43;5.77;;;2.83;;
6378;SDS011;3222;48.858;10.128;2024-02-21T04:01:09;6.63;;;3.27;;
6378;SDS011;3222;48.858;10.128;2024-02-21T04:03:34;8.27;;;2.80;;
6378;SDS011;3222;48.858;10.128;2024-02-21T04:06:00;7.90;;;2.70;;
6378;SDS011;3222;48.858;10.128;2024-02-21T04:08:26;7.77;;;3.07;;
6378;SDS011;3222;48.858;10.128;2024-02-21T04:10:51;8.70;;;2.90;;
6378;SDS011;3222;48.858;10.128;2024-02-21T04:13:17;8.60;;;3.13;;
6378;SDS011;3222;48.858;10.128;2024-02-21T04:15:43;9.20;;;2.83;;
6378;SDS011;3222;48.858;10.128;2024-02-21T04:18:08;9.07;;;3.03;;
6378;SDS011;3222;48.858;10.128;2024-02-21T04:20:34;6.33;;;2.60;;
6378;SDS011;3222;48.858;10.128;2024-02-21T04:23:00;4.97;;;2.60;;
6378;SDS011;3222;48.858;10.128;2024-02-21T04:25:26;5.70;;;2.57;;
6378;SDS011;3222;48.858;10.128;2024-02-21T04:27:52;9.73;;;2.80;;
6378;SDS011;3222;48.858;10.128;2024-02-21T04:30:17;5.07;;;2.50;;
6378;SDS011;3222;48.858;10.128;2024-02-21T04:32:43;5.23;;;2.80;;
6378;SDS011;3222;48.858;10.128;2024-02-21T04:35:09;5.97;;;2.50;;
6378;SDS011;3222;48.858;10.128;2024-02-21T04:37:34;7.93;;;2.77;;
6378;SDS011;3222;48.858;10.128;2024-02-21T04:40:00;6.23;;;2.53;;
6378;SDS011;3222;48.858;10.128;2024-02-21T04:42:26;7.03;;;2.63;;
6378;SDS011;3222;48.858;10.128;2024-02-21T04:44:52;6.90;;;2.90;;
6378;SDS011;3222;48.858;10.128;2024-02-21T04:47:18;5.57;;;2.97;;
6378;SDS011;3222;48.858;10.128;2024-02-21T04:49:45;9.10;;;3.37;;
6378;SDS011;3222;48.858;10.128;2024-02-21T04:52:11;8.53;;;3.27;;
6378;SDS011;3222;48.858;10.128;2024-02-21T04:54:37;7.47;;;3.10;;
6378;SDS011;3222;48.858;10.128;2024-02-21T04:57:03;7.47;;;3.33;;
6378;SDS011;3222;48.858;10.128;2024-02-21T04:59:29;7.07;;;3.10;;
6378;SDS011;3222;48.858;10.128;2024-02-21T05:01:55;6.13;;;2.80;;
6378;SDS011;3222;48.858;10.128;2024-02-21T05:04:21;7.50;;;2.83;;
6378;SDS011;3222;48.858;10.128;2024-02-21T05:06:46;8.00;;;2.63;;
6378;SDS011;3222;48.858;10.128;2024-02-21T05:09:12;8.37;;;3.07;;
6378;SDS011;3222;48.858;10.128;2024-02-21T05:11:38;5.10;;;3.20;;
6378;SDS011;3222;48.858;10.128;2024-02-21T05:14:04;7.07;;;2.87;;
6378;SDS011;3222;48.858;10.128;2024-02-21T05:16:33;6.80;;;3.20;;
6378;SDS011;3222;48.858;10.128;2024-02-21T05:18:58;9.30;;;4.20;;
6378;SDS011;3222;48.858;10.128;2024-02-21T05:21:24;6.60;;;2.70;;
6378;SDS011;3222;48.858;10.128;2024-02-21T05:23:50;4.93;;;2.50;;
6378;SDS011;3222;48.858;10.128;2024-02-21T05:26:20;9.77;;;2.93;;
6378;SDS011;3222;48.858;10.128;2024-02-21T05:28:49;5.87;;;2.93;;
6378;SDS011;3222;48.858;10.128;2024-02-21T05:31:15;5.67;;;2.83;;
6378;SDS011;3222;48.858;10.128;2024-02-21T05:33:43;4.97;;;2.70;;
6378;SDS011;3222;48.858;10.128;2024-02-21T05:36:09;7.43;;;2.80;;
6378;SDS011;3222;48.858;10.128;2024-02-21T05:38:35;6.80;;;3.37;;
6378;SDS011;3222;48.858;10.128;2024-02-21T05:41:01;9.67;;;3.10;;
6378;SDS011;3222;48.858;10.128;2024-02-21T05:43:27;10.10;;;3.40;;
6378;SDS011;3222;48.858;10.128;2024-02-21T05:45:52;6.10;;;3.30;;
6378;SDS011;3222;48.858;10.128;2024-02-21T05:48:18;6.27;;;2.80;;
6378;SDS011;3222;48.858;10.128;2024-02-21T05:50:45;6.87;;;2.77;;
6378;SDS011;3222;48.858;10.128;2024-02-21T05:53:10;8.77;;;2.80;;
6378;SDS011;3222;48.858;10.128;2024-02-21T05:55:36;6.70;;;2.80;;
6378;SDS011;3222;48.858;10.128;2024-02-21T05:58:02;3.60;;;2.77;;
6378;SDS011;3222;48.858;10.128;2024-02-21T06:00:28;7.33;;;2.73;;
6378;SDS011;3222;48.858;10.128;2024-02-21T06:02:54;5.07;;;2.70;;
6378;SDS011;3222;48.858;10.128;2024-02-21T06:05:20;3.33;;;2.43;;
6378;SDS011;3222;48.858;10.128;2024-02-21T06:07:46;5.47;;;2.70;;
6378;SDS011;3222;48.858;10.128;2024-02-21T06:10:11;5.53;;;2.90;;
6378;SDS011;3222;48.858;10.128;2024-02-21T06:12:37;5.67;;;2.70;;
6378;SDS011;3222;48.858;10.128;2024-02-21T06:15:03;5.73;;;3.03;;
6378;SDS011;3222;48.858;10.128;2024-02-21T06:17:29;5.20;;;2.73;;
6378;SDS011;3222;48.858;10.128;2024-02-21T06:19:54;7.37;;;3.37;;
6378;SDS011;3222;48.858;10.128;2024-02-21T06:22:20;6.80;;;3.00;;
6378;SDS011;3222;48.858;10.128;2024-02-21T06:24:45;8.67;;;3.30;;
6378;SDS011;3222;48.858;10.128;2024-02-21T06:27:11;5.80;;;2.90;;
6378;SDS011;3222;48.858;10.128;2024-02-21T06:29:37;6.57;;;3.07;;
6378;SDS011;3222;48.858;10.128;2024-02-21T06:32:03;10.90;;;3.10;;
6378;SDS011;3222;48.858;10.128;2024-02-21T06:34:29;4.63;;;2.70;;
6378;SDS011;3222;48.858;10.128;2024-02-21T06:36:56;6.87;;;2.60;;
6378;SDS011;3222;48.858;10.128;2024-02-21T06:39:22;5.17;;;2.90;;
6378;SDS011;3222;48.858;10.128;2024-02-21T06:41:48;6.83;;;2.77;;
6378;SDS011;3222;48.858;10.128;2024-02-21T06:44:15;4.37;;;2.67;;
6378;SDS011;3222;48.858;10.128;2024-02-21T06:46:42;5.43;;;2.90;;
6378;SDS011;3222;48.858;10.128;2024-02-21T06:49:07;8.27;;;2.83;;
6378;SDS011;3222;48.858;10.128;2024-02-21T06:51:33;7.73;;;3.10;;
6378;SDS011;3222;48.858;10.128;2024-02-21T06:53:59;4.33;;;2.43;;
6378;SDS011;3222;48.858;10.128;2024-02-21T06:56:25;5.30;;;2.70;;
6378;SDS011;3222;48.858;10.128;2024-02-21T06:58:57;5.37;;;2.50;;
6378;SDS011;3222;48.858;10.128;2024-02-21T07:01:26;4.10;;;2.37;;
6378;SDS011;3222;48.858;10.128;2024-02-21T07:03:51;7.37;;;2.50;;
6378;SDS011;3222;48.858;10.128;2024-02-21T07:06:17;3.37;;;2.40;;
6378;SDS011;3222;48.858;10.128;2024-02-21T07:08:43;6.73;;;2.90;;
6378;SDS011;3222;48.858;10.128;2024-02-21T07:11:08;3.90;;;2.63;;
6378;SDS011;3222;48.858;10.128;2024-02-21T07:13:34;3.40;;;2.17;;
6378;SDS011;3222;48.858;10.128;2024-02-21T07:16:00;7.90;;;2.50;;
6378;SDS011;3222;48.858;10.128;2024-02-21T07:18:25;5.83;;;2.63;;
6378;SDS011;3222;48.858;10.128;2024-02-21T07:20:52;6.17;;;2.63;;
6378;SDS011;3222;48.858;10.128;2024-02-21T07:23:18;3.87;;;2.23;;
6378;SDS011;3222;48.858;10.128;2024-02-21T07:25:44;5.27;;;2.57;;
6378;SDS011;3222;48.858;10.128;2024-02-21T07:28:09;4.47;;;2.70;;
6378;SDS011;3222;48.858;10.128;2024-02-21T07:30:35;4.63;;;2.60;;
6378;SDS011;3222;48.858;10.128;2024-02-21T07:33:01;6.43;;;2.90;;
6378;SDS011;3222;48.858;10.128;2024-02-21T07:35:27;5.87;;;2.83;;
6378;SDS011;3222;48.858;10.128;2024-02-21T07:37:53;7.30;;;2.70;;
6378;SDS011;3222;48.858;10.128;2024-02-21T07:40:19;4.97;;;2.10;;
6378;SDS011;3222;48.858;10.128;2024-02-21T07:42:44;5.33;;;2.43;;
6378;SDS011;3222;48.858;10.128;2024-02-21T07:45:10;7.97;;;2.57;;
6378;SDS011;3222;48.858;10.128;2024-02-21T07:47:36;5.40;;;2.37;;
6378;SDS011;3222;48.858;10.128;2024-02-21T07:50:02;4.00;;;2.63;;
6378;SDS011;3222;48.858;10.128;2024-02-21T07:52:28;6.97;;;2.60;;
6378;SDS011;3222;48.858;10.128;2024-02-21T07:54:54;5.93;;;2.43;;
6378;SDS011;3222;48.858;10.128;2024-02-21T07:57:20;5.70;;;2.77;;
6378;SDS011;3222;48.858;10.128;2024-02-21T07:59:46;7.33;;;2.70;;
6378;SDS011;3222;48.858;10.128;2024-02-21T08:02:16;4.00;;;2.10;;
6378;SDS011;3222;48.858;10.128;2024-02-21T08:04:42;5.23;;;2.53;;
6378;SDS011;3222;48.858;10.128;2024-02-21T08:07:07;4.87;;;2.43;;
6378;SDS011;3222;48.858;10.128;2024-02-21T08:09:34;3.10;;;2.20;;
6378;SDS011;3222;48.858;10.128;2024-02-21T08:12:01;6.80;;;2.33;;
6378;SDS011;3222;48.858;10.128;2024-02-21T08:14:27;6.70;;;2.57;;
6378;SDS011;3222;48.858;10.128;2024-02-21T08:16:53;5.57;;;2.60;;
6378;SDS011;3222;48.858;10.128;2024-02-21T08:19:20;4.87;;;2.53;;
6378;SDS011;3222;48.858;10.128;2024-02-21T08:21:46;5.97;;;2.33;;
6378;SDS011;3222;48.858;10.128;2024-02-21T08:24:12;3.70;;;2.50;;
6378;SDS011;3222;48.858;10.128;2024-02-21T08:26:43;7.20;;;2.30;;
6378;SDS011;3222;48.858;10.128;2024-02-21T08:29:12;6.27;;;2.33;;
6378;SDS011;3222;48.858;10.128;2024-02-21T08:31:38;9.67;;;2.70;;
6378;SDS011;3222;48.858;10.128;2024-02-21T08:34:03;8.80;;;2.70;;
6378;SDS011;3222;48.858;10.128;2024-02-21T08:36:30;5.30;;;2.53;;
6378;SDS011;3222;48.858;10.128;2024-02-21T08:38:57;4.70;;;2.37;;
6378;SDS011;3222;48.858;10.128;2024-02-21T08:41:23;3.93;;;2.20;;
6378;SDS011;3222;48.858;10.128;2024-02-21T08:43:53;3.73;;;2.27;;
6378;SDS011;3222;48.858;10.128;2024-02-21T08:46:19;6.60;;;2.53;;
6378;SDS011;3222;48.858;10.128;2024-02-21T08:48:46;6.60;;;2.37;;
6378;SDS011;3222;48.858;10.128;2024-02-21T08:51:15;5.77;;;2.80;;
6378;SDS011;3222;48.858;10.128;2024-02-21T08:53:41;5.00;;;2.40;;
6378;SDS011;3222;48.858;10.128;2024-02-21T08:56:06;5.87;;;2.40;;
6378;SDS011;3222;48.858;10.128;2024-02-21T08:58:33;6.07;;;2.33;;
6378;SDS011;3222;48.858;10.128;2024-02-21T09:01:00;4.73;;;2.40;;
6378;SDS011;3222;48.858;10.128;2024-02-21T09:03:30;4.90;;;1.90;;
6378;SDS011;3222;48.858;10.128;2024-02-21T09:05:59;6.73;;;2.07;;
6378;SDS011;3222;48.858;10.128;2024-02-21T09:08:26;4.93;;;2.50;;
6378;SDS011;3222;48.858;10.128;2024-02-21T09:10:52;5.37;;;2.47;;
6378;SDS011;3222;48.858;10.128;2024-02-21T09:13:18;8.00;;;2.37;;
6378;SDS011;3222;48.858;10.128;2024-02-21T09:15:49;5.83;;;2.50;;
6378;SDS011;3222;48.858;10.128;2024-02-21T09:18:17;5.80;;;3.20;;
6378;SDS011;3222;48.858;10.128;2024-02-21T09:20:43;5.30;;;2.30;;
6378;SDS011;3222;48.858;10.128;2024-02-21T09:23:09;5.63;;;2.40;;
6378;SDS011;3222;48.858;10.128;2024-02-21T09:25:34;5.97;;;2.50;;
6378;SDS011;3222;48.858;10.128;2024-02-21T09:28:03;7.07;;;2.77;;
6378;SDS011;3222;48.858;10.128;2024-02-21T09:30:31;5.67;;;2.67;;
6378;SDS011;3222;48.858;10.128;2024-02-21T09:32:57;6.87;;;2.80;;
6378;SDS011;3222;48.858;10.128;2024-02-21T09:35:26;5.97;;;2.60;;
6378;SDS011;3222;48.858;10.128;2024-02-21T09:37:53;4.20;;;2.23;;
6378;SDS011;3222;48.858;10.128;2024-02-21T09:40:19;7.20;;;3.00;;
6378;SDS011;3222;48.858;10.128;2024-02-21T09:42:46;7.93;;;2.63;;
6378;SDS011;3222;48.858;10.128;2024-02-21T09:45:25;4.37;;;2.73;;
6378;SDS011;3222;48.858;10.128;2024-02-21T09:50:34;5.97;;;2.80;;
6378;SDS011;3222;48.858;10.128;2024-02-21T09:53:03;7.10;;;2.90;;
6378;SDS011;3222;48.858;10.128;2024-02-21T09:55:32;5.47;;;2.50;;
6378;SDS011;3222;48.858;10.128;2024-02-21T09:57:59;6.17;;;2.93;;
6378;SDS011;3222;48.858;10.128;2024-02-21T10:00:26;5.47;;;2.50;;
6378;SDS011;3222;48.858;10.128;2024-02-21T10:02:53;5.20;;;2.50;;
6378;SDS011;3222;48.858;10.128;2024-02-21T10:05:19;4.17;;;2.10;;
6378;SDS011;3222;48.858;10.128;2024-02-21T10:07:45;6.13;;;2.70;;
6378;SDS011;3222;48.858;10.128;2024-02-21T10:10:11;4.67;;;2.27;;
6378;SDS011;3222;48.858;10.128;2024-02-21T10:12:37;4.67;;;2.27;;
6378;SDS011;3222;48.858;10.128;2024-02-21T10:15:19;4.33;;;2.40;;
6378;SDS011;3222;48.858;10.128;2024-02-21T10:17:46;7.27;;;3.33;;
6378;SDS011;3222;48.858;10.128;2024-02-21T10:20:12;4.53;;;2.40;;
6378;SDS011;3222;48.858;10.128;2024-02-21T10:22:39;3.43;;;2.40;;
6378;SDS011;3222;48.858;10.128;2024-02-21T10:25:08;4.13;;;2.90;;
6378;SDS011;3222;48.858;10.128;2024-02-21T10:27:35;5.67;;;2.27;;
6378;SDS011;3222;48.858;10.128;2024-02-21T10:30:02;6.07;;;2.50;;
6378;SDS011;3222;48.858;10.128;2024-02-21T10:32:29;5.03;;;2.30;;
6378;SDS011;3222;48.858;10.128;2024-02-21T10:35:05;7.37;;;2.90;;
6378;SDS011;3222;48.858;10.128;2024-02-21T10:37:31;6.57;;;2.40;;
6378;SDS011;3222;48.858;10.128;2024-02-21T10:40:00;4.43;;;2.13;;
6378;SDS011;3222;48.858;10.128;2024-02-21T10:42:29;5.87;;;2.60;;
6378;SDS011;3222;48.858;10.128;2024-02-21T10:45:00;5.67;;;2.40;;
6378;SDS011;3222;48.858;10.128;2024-02-21T10:47:29;8.07;;;2.63;;
6378;SDS011;3222;48.858;10.128;2024-02-21T10:49:58;4.83;;;2.30;;
6378;SDS011;3222;48.858;10.128;2024-02-21T10:52:37;4.17;;;2.37;;
6378;SDS011;3222;48.858;10.128;2024-02-21T10:55:19;5.00;;;2.30;;
6378;SDS011;3222;48.858;10.128;2024-02-21T10:57:52;4.00;;;2.27;;
6378;SDS011;3222;48.858;10.128;2024-02-21T11:00:18;6.53;;;2.20;;
6378;SDS011;3222;48.858;10.128;2024-02-21T11:02:45;3.97;;;2.17;;
6378;SDS011;3222;48.858;10.128;2024-02-21T11:05:12;3.27;;;2.17;;
6378;SDS011;3222;48.858;10.128;2024-02-21T11:07:38;2.07;;;1.90;;
6378;SDS011;3222;48.858;10.128;2024-02-21T11:10:05;4.73;;;2.23;;
6378;SDS011;3222;48.858;10.128;2024-02-21T11:12:45;4.40;;;2.23;;
6378;SDS011;3222;48.858;10.128;2024-02-21T11:15:10;3.80;;;2.00;;
6378;SDS011;3222;48.858;10.128;2024-02-21T11:17:36;5.50;;;2.47;;
6378;SDS011;3222;48.858;10.128;2024-02-21T11:20:12;7.87;;;2.87;;
6378;SDS011;3222;48.858;10.128;2024-02-21T11:22:42;4.67;;;2.77;;
6378;SDS011;3222;48.858;10.128;2024-02-21T11:25:08;4.40;;;2.43;;
6378;SDS011;3222;48.858;10.128;2024-02-21T11:27:37;8.63;;;3.57;;
6378;SDS011;3222;48.858;10.128;2024-02-21T11:30:04;6.20;;;2.43;;
6378;SDS011;3222;48.858;10.128;2024-02-21T11:32:31;5.37;;;2.30;;
6378;SDS011;3222;48.858;10.128;2024-02-21T11:34:57;5.10;;;2.53;;
6378;SDS011;3222;48.858;10.128;2024-02-21T11:37:27;5.00;;;2.30;;
6378;SDS011;3222;48.858;10.128;2024-02-21T11:39:54;4.57;;;2.03;;
6378;SDS011;3222;48.858;10.128;2024-02-21T11:42:20;4.80;;;2.63;;
6378;SDS011;3222;48.858;10.128;2024-02-21T11:44:46;3.93;;;2.40;;
6378;SDS011;3222;48.858;10.128;2024-02-21T11:47:13;5.43;;;2.60;;
6378;SDS011;3222;48.858;10.128;2024-02-21T11:49:43;4.77;;;2.57;;
6378;SDS011;3222;48.858;10.128;2024-02-21T11:52:11;3.87;;;2.50;;
6378;SDS011;3222;48.858;10.128;2024-02-21T11:54:40;15.37;;;5.00;;
6378;SDS011;3222;48.858;10.128;2024-02-21T11:57:06;9.33;;;3.70;;
6378;SDS011;3222;48.858;10.128;2024-02-21T11:59:32;4.50;;;2.77;;
6378;SDS011;3222;48.858;10.128;2024-02-21T12:01:59;6.23;;;2.43;;
6378;SDS011;3222;48.858;10.128;2024-02-21T12:04:26;4.03;;;2.40;;
6378;SDS011;3222;48.858;10.128;2024-02-21T12:06:52;6.10;;;3.13;;
6378;SDS011;3222;48.858;10.128;2024-02-21T12:09:19;5.67;;;2.50;;
6378;SDS011;3222;48.858;10.128;2024-02-21T12:11:45;4.93;;;2.77;;
6378;SDS011;3222;48.858;10.128;2024-02-21T12:14:21;4.73;;;2.30;;
6378;SDS011;3222;48.858;10.128;2024-02-21T12:16:50;4.57;;;2.60;;
6378;SDS011;3222;48.858;10.128;2024-02-21T12:19:15;4.67;;;2.70;;
6378;SDS011;3222;48.858;10.128;2024-02-21T12:21:42;4.43;;;3.00;;
6378;SDS011;3222;48.858;10.128;2024-02-21T12:24:26;3.67;;;2.40;;
6378;SDS011;3222;48.858;10.128;2024-02-21T12:26:53;5.30;;;2.20;;
6378;SDS011;3222;48.858;10.128;2024-02-21T12:29:20;4.80;;;3.13;;
6378;SDS011;3222;48.858;10.128;2024-02-21T12:31:46;6.57;;;2.47;;
6378;SDS011;3222;48.858;10.128;2024-02-21T12:34:12;5.63;;;2.33;;
6378;SDS011;3222;48.858;10.128;2024-02-21T12:36:43;5.37;;;2.70;;
6378;SDS011;3222;48.858;10.128;2024-02-21T12:39:10;6.50;;;2.50;;
6378;SDS011;3222;48.858;10.128;2024-02-21T12:41:36;4.80;;;2.23;;
6378;SDS011;3222;48.858;10.128;2024-02-21T12:44:08;4.50;;;2.33;;
6378;SDS011;3222;48.858;10.128;2024-02-21T12:46:36;4.30;;;2.20;;
6378;SDS011;3222;48.858;10.128;2024-02-21T12:49:02;4.13;;;2.20;;
6378;SDS011;3222;48.858;10.128;2024-02-21T12:51:29;3.23;;;2.07;;
6378;SDS011;3222;48.858;10.128;2024-02-21T12:53:55;4.93;;;2.20;;
6378;SDS011;3222;48.858;10.128;2024-02-21T12:56:21;7.97;;;2.23;;
6378;SDS011;3222;48.858;10.128;2024-02-21T12:58:47;3.27;;;2.00;;
6378;SDS011;3222;48.858;10.128;2024-02-21T13:01:13;4.33;;;2.13;;
6378;SDS011;3222;48.858;10.128;2024-02-21T13:03:38;4.97;;;2.23;;
6378;SDS011;3222;48.858;10.128;2024-02-21T13:06:04;2.97;;;2.20;;
6378;SDS011;3222;48.858;10.128;2024-02-21T13:08:31;5.17;;;2.30;;
6378;SDS011;3222;48.858;10.128;2024-02-21T13:10:59;4.27;;;2.00;;
6378;SDS011;3222;48.858;10.128;2024-02-21T13:13:25;5.90;;;2.60;;
6378;SDS011;3222;48.858;10.128;2024-02-21T13:15:50;3.67;;;1.97;;
6378;SDS011;3222;48.858;10.128;2024-02-21T13:18:16;3.53;;;2.03;;
6378;SDS011;3222;48.858;10.128;2024-02-21T13:20:42;3.80;;;2.00;;
6378;SDS011;3222;48.858;10.128;2024-02-21T13:23:07;3.27;;;1.87;;
6378;SDS011;3222;48.858;10.128;2024-02-21T13:25:33;3.57;;;2.10;;
6378;SDS011;3222;48.858;10.128;2024-02-21T13:27:59;3.00;;;2.00;;
6378;SDS011;3222;48.858;10.128;2024-02-21T13:30:25;7.10;;;2.20;;
6378;SDS011;3222;48.858;10.128;2024-02-21T13:32:51;4.23;;;2.20;;
6378;SDS011;3222;48.858;10.128;2024-02-21T13:35:17;4.83;;;2.03;;
6378;SDS011;3222;48.858;10.128;2024-02-21T13:37:43;2.57;;;1.93;;
6378;SDS011;3222;48.858;10.128;2024-02-21T13:40:09;5.23;;;1.97;;
6378;SDS011;3222;48.858;10.128;2024-02-21T13:42:35;5.30;;;2.03;;
6378;SDS011;3222;48.858;10.128;2024-02-21T13:45:02;10.83;;;2.13;;
6378;SDS011;3222;48.858;10.128;2024-02-21T13:47:30;5.40;;;2.00;;
6378;SDS011;3222;48.858;10.128;2024-02-21T13:49:56;3.60;;;1.90;;
6378;SDS011;3222;48.858;10.128;2024-02-21T13:52:22;2.47;;;1.87;;
6378;SDS011;3222;48.858;10.128;2024-02-21T13:54:48;2.53;;;2.00;;
6378;SDS011;3222;48.858;10.128;2024-02-21T13:57:14;2.07;;;1.80;;
6378;SDS011;3222;48.858;10.128;2024-02-21T13:59:39;3.10;;;1.90;;
6378;SDS011;3222;48.858;10.128;2024-02-21T14:02:05;3.63;;;1.83;;
6378;SDS011;3222;48.858;10.128;2024-02-21T14:04:34;4.47;;;2.10;;
6378;SDS011;3222;48.858;10.128;2024-02-21T14:07:00;3.50;;;1.87;;
6378;SDS011;3222;48.858;10.128;2024-02-21T14:09:26;3.70;;;2.20;;
6378;SDS011;3222;48.858;10.128;2024-02-21T14:11:52;3.53;;;2.00;;
6378;SDS011;3222;48.858;10.128;2024-02-21T14:14:18;3.17;;;1.90;;
6378;SDS011;3222;48.858;10.128;2024-02-21T14:16:44;5.30;;;1.90;;
6378;SDS011;3222;48.858;10.128;2024-02-21T14:19:12;3.20;;;1.90;;
6378;SDS011;3222;48.858;10.128;2024-02-21T14:21:38;2.27;;;1.80;;
6378;SDS011;3222;48.858;10.128;2024-02-21T14:24:05;3.77;;;1.83;;
6378;SDS011;3222;48.858;10.128;2024-02-21T14:26:31;5.10;;;2.20;;
6378;SDS011;3222;48.858;10.128;2024-02-21T14:28:57;2.80;;;2.20;;
6378;SDS011;3222;48.858;10.128;2024-02-21T14:31:23;4.43;;;2.10;;
6378;SDS011;3222;48.858;10.128;2024-02-21T14:33:50;6.13;;;2.10;;
6378;SDS011;3222;48.858;10.128;2024-02-21T14:36:16;3.03;;;1.77;;
6378;SDS011;3222;48.858;10.128;2024-02-21T14:38:42;2.90;;;1.93;;
6378;SDS011;3222;48.858;10.128;2024-02-21T14:41:08;4.77;;;1.87;;
6378;SDS011;3222;48.858;10.128;2024-02-21T14:43:37;3.20;;;1.90;;
6378;SDS011;3222;48.858;10.128;2024-02-21T14:46:03;2.90;;;1.90;;
6378;SDS011;3222;48.858;10.128;2024-02-21T14:48:30;5.43;;;2.53;;
6378;SDS011;3222;48.858;10.128;2024-02-21T14:50:57;17.67;;;5.73;;
6378;SDS011;3222;48.858;10.128;2024-02-21T14:53:23;6.47;;;3.10;;
6378;SDS011;3222;48.858;10.128;2024-02-21T14:55:49;4.70;;;2.47;;
6378;SDS011;3222;48.858;10.128;2024-02-21T14:58:15;3.97;;;2.43;;
6378;SDS011;3222;48.858;10.128;2024-02-21T15:00:43;4.30;;;2.33;;